sensor_id;sensor_type;location;lat;lon;timestamp;pressure;altitude;pressure_sealevel;temperature;humidity
9855;BME280;4966;48.112;9.282;2023-01-24T00:01:40;95732.34;;;0.94;98.54
9855;BME280;4966;48.112;9.282;2023-01-24T00:04:05;95735.88;;;0.78;99.71
9855;BME280;4966;48.112;9.282;2023-01-24T00:06:30;95737.22;;;1.02;98.06
9855;BME280;4966;48.112;9.282;2023-01-24T00:08:56;95735.72;;;0.84;99.48
9855;BME280;4966;48.112;9.282;2023-01-24T00:11:21;95721.03;;;0.65;100.00
9855;BME280;4966;48.112;9.282;2023-01-24T00:13:46;95725.50;;;0.81;100.00
9855;BME280;4966;48.112;9.282;2023-01-24T00:16:17;95722.63;;;0.66;100.00
9855;BME280;4966;48.112;9.282;2023-01-24T00:18:43;95724.59;;;0.98;100.00
9855;BME280;4966;48.112;9.282;2023-01-24T00:21:14;95726.16;;;0.72;100.00
9855;BME280;4966;48.112;9.282;2023-01-24T00:23:44;95722.94;;;0.70;100.00
9855;BME280;4966;48.112;9.282;2023-01-24T00:26:10;95737.88;;;0.88;100.00
9855;BME280;4966;48.112;9.282;2023-01-24T00:28:36;95742.31;;;0.99;99.51
9855;BME280;4966;48.112;9.282;2023-01-24T00:31:02;95733.34;;;0.66;100.00
9855;BME280;4966;48.112;9.282;2023-01-24T00:33:28;95732.59;;;0.49;100.00
9855;BME280;4966;48.112;9.282;2023-01-24T00:35:53;95729.91;;;0.49;100.00
9855;BME280;4966;48.112;9.282;2023-01-24T00:38:20;95730.16;;;0.69;100.00
9855;BME280;4966;48.112;9.282;2023-01-24T00:40:45;95731.91;;;0.80;100.00
9855;BME280;4966;48.112;9.282;2023-01-24T00:43:11;95716.78;;;0.47;100.00
9855;BME280;4966;48.112;9.282;2023-01-24T00:45:37;95742.00;;;0.51;100.00
9855;BME280;4966;48.112;9.282;2023-01-24T00:48:04;95738.94;;;0.64;100.00
9855;BME280;4966;48.112;9.282;2023-01-24T00:50:30;95731.72;;;0.65;100.00
9855;BME280;4966;48.112;9.282;2023-01-24T00:52:56;95744.50;;;0.80;100.00
9855;BME280;4966;48.112;9.282;2023-01-24T00:55:21;95739.91;;;1.02;99.73
9855;BME280;4966;48.112;9.282;2023-01-24T00:57:46;95726.63;;;0.63;100.00
9855;BME280;4966;48.112;9.282;2023-01-24T01:00:12;95750.97;;;0.84;100.00
9855;BME280;4966;48.112;9.282;2023-01-24T01:02:38;95738.19;;;0.47;100.00
9855;BME280;4966;48.112;9.282;2023-01-24T01:05:04;95739.19;;;0.63;100.00
9855;BME280;4966;48.112;9.282;2023-01-24T01:07:30;95740.00;;;0.63;100.00
9855;BME280;4966;48.112;9.282;2023-01-24T01:09:55;95750.34;;;0.77;100.00
9855;BME280;4966;48.112;9.282;2023-01-24T01:12:21;95745.16;;;0.92;100.00
9855;BME280;4966;48.112;9.282;2023-01-24T01:14:46;95746.84;;;0.98;100.00
9855;BME280;4966;48.112;9.282;2023-01-24T01:17:12;95750.69;;;1.08;99.05
9855;BME280;4966;48.112;9.282;2023-01-24T01:19:37;95746.22;;;1.13;98.76
9855;BME280;4966;48.112;9.282;2023-01-24T01:22:02;95739.88;;;1.24;98.56
9855;BME280;4966;48.112;9.282;2023-01-24T01:24:28;95753.03;;;0.77;100.00
9855;BME280;4966;48.112;9.282;2023-01-24T01:26:53;95751.56;;;0.47;100.00
9855;BME280;4966;48.112;9.282;2023-01-24T01:29:18;95743.34;;;0.98;100.00
9855;BME280;4966;48.112;9.282;2023-01-24T01:31:44;95752.69;;;0.95;100.00
9855;BME280;4966;48.112;9.282;2023-01-24T01:34:10;95754.31;;;0.96;100.00
9855;BME280;4966;48.112;9.282;2023-01-24T01:36:35;95761.06;;;0.99;99.23
9855;BME280;4966;48.112;9.282;2023-01-24T01:39:00;95751.28;;;0.66;100.00
9855;BME280;4966;48.112;9.282;2023-01-24T01:41:26;95756.22;;;1.23;98.38
9855;BME280;4966;48.112;9.282;2023-01-24T01:43:51;95754.06;;;0.98;99.87
9855;BME280;4966;48.112;9.282;2023-01-24T01:46:41;95764.84;;;1.03;99.77
9855;BME280;4966;48.112;9.282;2023-01-24T01:49:15;95759.25;;;0.82;100.00
9855;BME280;4966;48.112;9.282;2023-01-24T01:51:45;95768.16;;;0.66;100.00
9855;BME280;4966;48.112;9.282;2023-01-24T01:54:16;95768.59;;;0.80;100.00
9855;BME280;4966;48.112;9.282;2023-01-24T01:56:56;95763.25;;;0.80;100.00
9855;BME280;4966;48.112;9.282;2023-01-24T01:59:29;95762.84;;;0.71;100.00
9855;BME280;4966;48.112;9.282;2023-01-24T02:01:57;95761.38;;;0.80;100.00
9855;BME280;4966;48.112;9.282;2023-01-24T02:04:29;95758.47;;;1.09;99.11
9855;BME280;4966;48.112;9.282;2023-01-24T02:07:04;95758.66;;;1.02;98.95
9855;BME280;4966;48.112;9.282;2023-01-24T02:09:36;95764.16;;;0.91;100.00
9855;BME280;4966;48.112;9.282;2023-01-24T02:12:10;95760.19;;;0.71;100.00
9855;BME280;4966;48.112;9.282;2023-01-24T02:14:37;95767.59;;;1.08;99.39
9855;BME280;4966;48.112;9.282;2023-01-24T02:17:22;95764.16;;;0.91;99.52
9855;BME280;4966;48.112;9.282;2023-01-24T02:28:04;95770.75;;;1.27;97.97
9855;BME280;4966;48.112;9.282;2023-01-24T02:30:30;95772.94;;;0.86;99.25
9855;BME280;4966;48.112;9.282;2023-01-24T02:32:56;95774.41;;;0.55;100.00
9855;BME280;4966;48.112;9.282;2023-01-24T02:35:27;95762.72;;;1.05;98.63
9855;BME280;4966;48.112;9.282;2023-01-24T02:37:54;95773.66;;;0.98;99.22
9855;BME280;4966;48.112;9.282;2023-01-24T02:40:22;95773.13;;;1.01;99.23
9855;BME280;4966;48.112;9.282;2023-01-24T02:42:48;95767.44;;;0.98;98.90
9855;BME280;4966;48.112;9.282;2023-01-24T02:45:26;95769.09;;;0.77;100.00
9855;BME280;4966;48.112;9.282;2023-01-24T02:47:53;95762.56;;;0.68;100.00
9855;BME280;4966;48.112;9.282;2023-01-24T02:50:21;95762.91;;;0.54;100.00
9855;BME280;4966;48.112;9.282;2023-01-24T02:52:47;95766.09;;;0.51;100.00
9855;BME280;4966;48.112;9.282;2023-01-24T02:55:31;95765.84;;;0.53;100.00
9855;BME280;4966;48.112;9.282;2023-01-24T02:57:57;95759.38;;;0.93;100.00
9855;BME280;4966;48.112;9.282;2023-01-24T03:00:38;95750.72;;;0.85;100.00
9855;BME280;4966;48.112;9.282;2023-01-24T03:03:05;95768.59;;;1.02;99.14
9855;BME280;4966;48.112;9.282;2023-01-24T03:05:31;95766.47;;;0.60;100.00
9855;BME280;4966;48.112;9.282;2023-01-24T03:08:16;95768.81;;;0.56;100.00
9855;BME280;4966;48.112;9.282;2023-01-24T03:10:42;95769.63;;;0.57;100.00
9855;BME280;4966;48.112;9.282;2023-01-24T03:13:07;95768.88;;;0.61;100.00
9855;BME280;4966;48.112;9.282;2023-01-24T03:15:51;95781.44;;;0.78;100.00
9855;BME280;4966;48.112;9.282;2023-01-24T03:18:35;95774.56;;;0.65;100.00
9855;BME280;4966;48.112;9.282;2023-01-24T03:21:19;95776.16;;;1.10;99.16
9855;BME280;4966;48.112;9.282;2023-01-24T03:24:03;95788.25;;;0.69;100.00
9855;BME280;4966;48.112;9.282;2023-01-24T03:26:47;95783.66;;;1.08;98.70
9855;BME280;4966;48.112;9.282;2023-01-24T03:29:31;95780.34;;;1.23;98.39
9855;BME280;4966;48.112;9.282;2023-01-24T03:32:15;95782.88;;;1.35;97.53
9855;BME280;4966;48.112;9.282;2023-01-24T03:34:59;95785.91;;;1.43;96.12
9855;BME280;4966;48.112;9.282;2023-01-24T03:37:24;95777.75;;;1.06;97.59
9855;BME280;4966;48.112;9.282;2023-01-24T03:40:12;95796.00;;;1.09;98.04
9855;BME280;4966;48.112;9.282;2023-01-24T03:42:38;95792.09;;;1.22;97.56
9855;BME280;4966;48.112;9.282;2023-01-24T03:45:18;95796.94;;;0.98;98.86
9855;BME280;4966;48.112;9.282;2023-01-24T03:47:50;95796.00;;;1.09;98.36
9855;BME280;4966;48.112;9.282;2023-01-24T03:50:43;95797.22;;;1.23;97.86
9855;BME280;4966;48.112;9.282;2023-01-24T03:53:28;95797.19;;;1.18;97.74
9855;BME280;4966;48.112;9.282;2023-01-24T03:55:57;95804.59;;;0.89;99.04
9855;BME280;4966;48.112;9.282;2023-01-24T03:58:24;95806.03;;;0.75;100.00
9855;BME280;4966;48.112;9.282;2023-01-24T04:00:51;95791.50;;;0.93;100.00
9855;BME280;4966;48.112;9.282;2023-01-24T04:03:16;95800.16;;;1.22;98.30
9855;BME280;4966;48.112;9.282;2023-01-24T04:05:42;95789.44;;;1.00;98.94
9855;BME280;4966;48.112;9.282;2023-01-24T04:08:07;95789.28;;;0.84;100.00
9855;BME280;4966;48.112;9.282;2023-01-24T04:10:33;95801.16;;;1.16;98.51
9855;BME280;4966;48.112;9.282;2023-01-24T04:12:59;95809.75;;;0.74;100.00
9855;BME280;4966;48.112;9.282;2023-01-24T04:15:27;95805.28;;;0.79;100.00
9855;BME280;4966;48.112;9.282;2023-01-24T04:17:57;95802.41;;;0.86;98.73
9855;BME280;4966;48.112;9.282;2023-01-24T04:20:24;95797.50;;;1.00;99.63
9855;BME280;4966;48.112;9.282;2023-01-24T04:22:49;95799.44;;;0.82;100.00
9855;BME280;4966;48.112;9.282;2023-01-24T04:25:15;95807.84;;;0.91;100.00
9855;BME280;4966;48.112;9.282;2023-01-24T04:27:40;95811.84;;;1.11;99.06
9855;BME280;4966;48.112;9.282;2023-01-24T04:30:08;95811.13;;;1.20;98.38
9855;BME280;4966;48.112;9.282;2023-01-24T04:32:34;95819.25;;;1.25;97.96
9855;BME280;4966;48.112;9.282;2023-01-24T04:34:59;95811.16;;;1.47;96.68
9855;BME280;4966;48.112;9.282;2023-01-24T04:37:26;95811.50;;;1.29;97.70
9855;BME280;4966;48.112;9.282;2023-01-24T04:39:51;95825.41;;;1.26;97.75
9855;BME280;4966;48.112;9.282;2023-01-24T04:42:17;95809.50;;;1.19;96.88
9855;BME280;4966;48.112;9.282;2023-01-24T04:44:42;95822.28;;;1.12;99.26
9855;BME280;4966;48.112;9.282;2023-01-24T04:47:07;95825.72;;;1.30;96.99
9855;BME280;4966;48.112;9.282;2023-01-24T04:49:33;95828.50;;;0.74;100.00
9855;BME280;4966;48.112;9.282;2023-01-24T04:51:58;95831.34;;;1.55;96.30
9855;BME280;4966;48.112;9.282;2023-01-24T04:54:23;95836.22;;;1.58;95.84
9855;BME280;4966;48.112;9.282;2023-01-24T04:56:49;95837.44;;;1.23;97.54
9855;BME280;4966;48.112;9.282;2023-01-24T04:59:14;95826.81;;;1.34;97.20
9855;BME280;4966;48.112;9.282;2023-01-24T05:01:40;95836.72;;;1.55;96.07
9855;BME280;4966;48.112;9.282;2023-01-24T05:04:06;95853.00;;;1.48;96.15
9855;BME280;4966;48.112;9.282;2023-01-24T05:06:32;95832.53;;;1.15;96.61
9855;BME280;4966;48.112;9.282;2023-01-24T05:08:58;95846.34;;;1.51;96.21
9855;BME280;4966;48.112;9.282;2023-01-24T05:11:24;95844.56;;;1.13;98.50
9855;BME280;4966;48.112;9.282;2023-01-24T05:13:50;95845.44;;;1.45;96.66
9855;BME280;4966;48.112;9.282;2023-01-24T05:16:16;95846.34;;;1.07;99.63
9855;BME280;4966;48.112;9.282;2023-01-24T05:18:42;95850.75;;;1.40;97.43
9855;BME280;4966;48.112;9.282;2023-01-24T05:21:11;95839.81;;;1.20;98.75
9855;BME280;4966;48.112;9.282;2023-01-24T05:23:37;95858.28;;;1.43;97.45
9855;BME280;4966;48.112;9.282;2023-01-24T05:26:03;95844.16;;;1.26;98.70
9855;BME280;4966;48.112;9.282;2023-01-24T05:28:30;95849.94;;;0.96;98.92
9855;BME280;4966;48.112;9.282;2023-01-24T05:31:02;95845.03;;;1.10;98.47
9855;BME280;4966;48.112;9.282;2023-01-24T05:33:28;95838.66;;;1.38;97.26
9855;BME280;4966;48.112;9.282;2023-01-24T05:36:00;95840.00;;;1.62;95.52
9855;BME280;4966;48.112;9.282;2023-01-24T05:38:26;95842.41;;;0.93;98.49
9855;BME280;4966;48.112;9.282;2023-01-24T05:40:52;95841.19;;;1.22;98.12
9855;BME280;4966;48.112;9.282;2023-01-24T05:43:17;95845.41;;;0.96;99.36
9855;BME280;4966;48.112;9.282;2023-01-24T05:45:42;95855.97;;;0.86;100.00
9855;BME280;4966;48.112;9.282;2023-01-24T05:48:08;95852.44;;;1.24;97.92
9855;BME280;4966;48.112;9.282;2023-01-24T05:50:35;95848.84;;;1.14;99.28
9855;BME280;4966;48.112;9.282;2023-01-24T05:53:02;95845.78;;;1.05;99.44
9855;BME280;4966;48.112;9.282;2023-01-24T05:55:27;95841.56;;;1.09;98.56
9855;BME280;4966;48.112;9.282;2023-01-24T05:57:53;95855.50;;;1.33;97.16
9855;BME280;4966;48.112;9.282;2023-01-24T06:00:19;95855.63;;;1.43;96.68
9855;BME280;4966;48.112;9.282;2023-01-24T06:02:44;95854.56;;;1.44;96.24
9855;BME280;4966;48.112;9.282;2023-01-24T06:05:09;95866.63;;;1.20;97.37
9855;BME280;4966;48.112;9.282;2023-01-24T06:07:35;95865.50;;;1.16;98.16
9855;BME280;4966;48.112;9.282;2023-01-24T06:10:00;95866.63;;;1.20;98.94
9855;BME280;4966;48.112;9.282;2023-01-24T06:12:25;95867.94;;;0.78;100.00
9855;BME280;4966;48.112;9.282;2023-01-24T06:14:51;95870.34;;;1.19;99.70
9855;BME280;4966;48.112;9.282;2023-01-24T06:17:16;95877.81;;;0.95;100.00
9855;BME280;4966;48.112;9.282;2023-01-24T06:19:42;95883.69;;;1.14;99.98
9855;BME280;4966;48.112;9.282;2023-01-24T06:24:46;95884.81;;;0.79;100.00
9855;BME280;4966;48.112;9.282;2023-01-24T06:27:12;95887.41;;;0.74;100.00
9855;BME280;4966;48.112;9.282;2023-01-24T06:29:38;95885.66;;;1.01;99.86
9855;BME280;4966;48.112;9.282;2023-01-24T06:37:49;95891.75;;;0.75;100.00
9855;BME280;4966;48.112;9.282;2023-01-24T06:40:20;95899.63;;;1.03;100.00
9855;BME280;4966;48.112;9.282;2023-01-24T06:42:46;95911.09;;;0.99;100.00
9855;BME280;4966;48.112;9.282;2023-01-24T06:45:12;95910.00;;;1.39;99.26
9855;BME280;4966;48.112;9.282;2023-01-24T06:47:37;95905.56;;;1.27;99.36
9855;BME280;4966;48.112;9.282;2023-01-24T06:50:04;95908.19;;;0.83;100.00
9855;BME280;4966;48.112;9.282;2023-01-24T06:52:31;95915.97;;;0.85;100.00
9855;BME280;4966;48.112;9.282;2023-01-24T06:54:56;95899.44;;;0.71;100.00
9855;BME280;4966;48.112;9.282;2023-01-24T06:57:22;95904.72;;;1.05;100.00
9855;BME280;4966;48.112;9.282;2023-01-24T06:59:47;95911.66;;;1.01;100.00
9855;BME280;4966;48.112;9.282;2023-01-24T07:02:12;95902.63;;;1.07;100.00
9855;BME280;4966;48.112;9.282;2023-01-24T07:04:38;95916.59;;;1.09;100.00
9855;BME280;4966;48.112;9.282;2023-01-24T07:07:04;95908.25;;;1.05;100.00
9855;BME280;4966;48.112;9.282;2023-01-24T07:09:32;95909.72;;;0.96;100.00
9855;BME280;4966;48.112;9.282;2023-01-24T07:11:57;95917.56;;;1.03;100.00
9855;BME280;4966;48.112;9.282;2023-01-24T07:14:23;95927.81;;;1.06;100.00
9855;BME280;4966;48.112;9.282;2023-01-24T07:16:50;95928.69;;;1.12;100.00
9855;BME280;4966;48.112;9.282;2023-01-24T07:19:18;95928.00;;;1.43;99.29
9855;BME280;4966;48.112;9.282;2023-01-24T07:21:44;95929.84;;;0.99;100.00
9855;BME280;4966;48.112;9.282;2023-01-24T07:24:16;95928.78;;;1.00;100.00
9855;BME280;4966;48.112;9.282;2023-01-24T07:26:42;95939.41;;;1.34;99.71
9855;BME280;4966;48.112;9.282;2023-01-24T07:29:08;95933.63;;;1.42;99.26
9855;BME280;4966;48.112;9.282;2023-01-24T07:31:33;95937.56;;;1.34;100.00
9855;BME280;4966;48.112;9.282;2023-01-24T07:33:59;95927.81;;;1.72;97.83
9855;BME280;4966;48.112;9.282;2023-01-24T07:36:24;95942.41;;;1.15;100.00
9855;BME280;4966;48.112;9.282;2023-01-24T07:38:54;95944.25;;;1.15;100.00
9855;BME280;4966;48.112;9.282;2023-01-24T07:41:20;95942.66;;;1.14;100.00
9855;BME280;4966;48.112;9.282;2023-01-24T07:43:45;95958.44;;;1.32;100.00
9855;BME280;4966;48.112;9.282;2023-01-24T07:46:10;95954.53;;;1.40;99.96
9855;BME280;4966;48.112;9.282;2023-01-24T07:48:36;95955.97;;;1.09;100.00
9855;BME280;4966;48.112;9.282;2023-01-24T07:51:01;95961.94;;;1.33;99.88
9855;BME280;4966;48.112;9.282;2023-01-24T07:53:27;95955.91;;;1.42;99.53
9855;BME280;4966;48.112;9.282;2023-01-24T07:55:52;95959.25;;;1.55;98.58
9855;BME280;4966;48.112;9.282;2023-01-24T07:58:18;95957.31;;;1.72;97.38
9855;BME280;4966;48.112;9.282;2023-01-24T08:00:43;95960.97;;;1.22;100.00
9855;BME280;4966;48.112;9.282;2023-01-24T08:03:10;95967.50;;;1.48;98.85
9855;BME280;4966;48.112;9.282;2023-01-24T08:05:36;95971.13;;;1.37;99.36
9855;BME280;4966;48.112;9.282;2023-01-24T08:08:02;95973.59;;;1.43;99.38
9855;BME280;4966;48.112;9.282;2023-01-24T08:10:28;95971.88;;;1.15;100.00
9855;BME280;4966;48.112;9.282;2023-01-24T08:12:54;95971.06;;;1.54;99.28
9855;BME280;4966;48.112;9.282;2023-01-24T08:15:20;95971.44;;;1.23;100.00
9855;BME280;4966;48.112;9.282;2023-01-24T08:17:46;95980.59;;;1.44;99.81
9855;BME280;4966;48.112;9.282;2023-01-24T08:20:12;95981.22;;;1.52;99.02
9855;BME280;4966;48.112;9.282;2023-01-24T08:22:41;95974.22;;;1.12;100.00
9855;BME280;4966;48.112;9.282;2023-01-24T08:25:07;95987.78;;;1.22;100.00
9855;BME280;4966;48.112;9.282;2023-01-24T08:27:33;95981.59;;;1.60;99.05
9855;BME280;4966;48.112;9.282;2023-01-24T08:29:58;95987.22;;;1.81;97.20
9855;BME280;4966;48.112;9.282;2023-01-24T08:32:24;95984.81;;;1.40;98.29
9855;BME280;4966;48.112;9.282;2023-01-24T08:34:49;95996.31;;;1.58;98.28
9855;BME280;4966;48.112;9.282;2023-01-24T08:37:15;95998.28;;;1.45;98.40
9855;BME280;4966;48.112;9.282;2023-01-24T08:39:40;95990.34;;;1.73;97.25
9855;BME280;4966;48.112;9.282;2023-01-24T08:42:06;95994.13;;;1.55;98.19
9855;BME280;4966;48.112;9.282;2023-01-24T08:44:32;96002.91;;;1.72;97.05
9855;BME280;4966;48.112;9.282;2023-01-24T08:46:57;95997.94;;;1.81;96.25
9855;BME280;4966;48.112;9.282;2023-01-24T08:49:22;95995.84;;;2.10;94.76
9855;BME280;4966;48.112;9.282;2023-01-24T08:51:48;96002.44;;;1.75;96.29
9855;BME280;4966;48.112;9.282;2023-01-24T08:54:14;95995.00;;;1.60;96.50
9855;BME280;4966;48.112;9.282;2023-01-24T08:56:40;95999.44;;;1.72;96.84
9855;BME280;4966;48.112;9.282;2023-01-24T08:59:05;96004.03;;;1.98;95.59
9855;BME280;4966;48.112;9.282;2023-01-24T09:01:31;96019.34;;;1.76;96.50
9855;BME280;4966;48.112;9.282;2023-01-24T09:03:58;96010.78;;;2.23;93.84
9855;BME280;4966;48.112;9.282;2023-01-24T09:06:25;96018.16;;;1.88;95.32
9855;BME280;4966;48.112;9.282;2023-01-24T09:08:52;96016.09;;;1.74;95.88
9855;BME280;4966;48.112;9.282;2023-01-24T09:11:18;96020.75;;;2.27;93.55
9855;BME280;4966;48.112;9.282;2023-01-24T09:13:43;96025.06;;;1.84;95.28
9855;BME280;4966;48.112;9.282;2023-01-24T09:16:09;96027.44;;;2.03;94.28
9855;BME280;4966;48.112;9.282;2023-01-24T09:18:34;96024.25;;;2.06;93.90
9855;BME280;4966;48.112;9.282;2023-01-24T09:21:01;96026.16;;;1.83;95.16
9855;BME280;4966;48.112;9.282;2023-01-24T09:23:27;96021.16;;;1.70;96.25
9855;BME280;4966;48.112;9.282;2023-01-24T09:25:53;96028.25;;;2.03;94.18
9855;BME280;4966;48.112;9.282;2023-01-24T09:28:20;96018.72;;;1.90;94.93
9855;BME280;4966;48.112;9.282;2023-01-24T09:30:49;96017.34;;;1.66;96.65
9855;BME280;4966;48.112;9.282;2023-01-24T09:33:15;96022.78;;;1.71;96.38
9855;BME280;4966;48.112;9.282;2023-01-24T09:35:49;96021.03;;;2.04;94.92
9855;BME280;4966;48.112;9.282;2023-01-24T09:38:15;96025.59;;;1.42;97.52
9855;BME280;4966;48.112;9.282;2023-01-24T09:40:53;96025.97;;;1.68;96.97
9855;BME280;4966;48.112;9.282;2023-01-24T09:46:30;96035.78;;;1.62;97.60
9855;BME280;4966;48.112;9.282;2023-01-24T09:49:15;96033.75;;;1.69;97.41
9855;BME280;4966;48.112;9.282;2023-01-24T09:51:49;96038.56;;;2.11;95.46
9855;BME280;4966;48.112;9.282;2023-01-24T09:54:31;96030.13;;;2.03;95.77
9855;BME280;4966;48.112;9.282;2023-01-24T09:56:58;96035.84;;;1.45;98.36
9855;BME280;4966;48.112;9.282;2023-01-24T09:59:39;96039.31;;;1.63;97.26
9855;BME280;4966;48.112;9.282;2023-01-24T10:02:15;96038.38;;;1.96;96.46
9855;BME280;4966;48.112;9.282;2023-01-24T10:04:42;96043.94;;;1.51;98.11
9855;BME280;4966;48.112;9.282;2023-01-24T10:12:53;96043.84;;;1.84;96.40
9855;BME280;4966;48.112;9.282;2023-01-24T10:18:14;96048.38;;;1.40;99.38
9855;BME280;4966;48.112;9.282;2023-01-24T10:21:00;96039.25;;;2.02;96.69
9855;BME280;4966;48.112;9.282;2023-01-24T10:23:33;96038.19;;;1.81;96.06
9855;BME280;4966;48.112;9.282;2023-01-24T10:26:05;96032.88;;;1.64;97.29
9855;BME280;4966;48.112;9.282;2023-01-24T10:28:39;96028.53;;;1.80;95.80
9855;BME280;4966;48.112;9.282;2023-01-24T10:31:13;96034.25;;;2.10;95.32
9855;BME280;4966;48.112;9.282;2023-01-24T10:33:51;96035.75;;;2.23;94.31
9855;BME280;4966;48.112;9.282;2023-01-24T10:36:34;96034.84;;;2.18;94.00
9855;BME280;4966;48.112;9.282;2023-01-24T10:39:03;96028.56;;;2.07;95.13
9855;BME280;4966;48.112;9.282;2023-01-24T10:41:31;96038.81;;;1.88;95.91
9855;BME280;4966;48.112;9.282;2023-01-24T10:44:03;96034.44;;;2.26;94.31
9855;BME280;4966;48.112;9.282;2023-01-24T10:49:24;96037.22;;;2.36;92.74
9855;BME280;4966;48.112;9.282;2023-01-24T10:54:57;96046.25;;;2.03;94.90
9855;BME280;4966;48.112;9.282;2023-01-24T11:02:40;96026.94;;;2.06;94.95
9855;BME280;4966;48.112;9.282;2023-01-24T11:05:06;96028.06;;;2.10;94.39
9855;BME280;4966;48.112;9.282;2023-01-24T11:07:36;96026.44;;;2.31;93.05
9855;BME280;4966;48.112;9.282;2023-01-24T11:10:36;96019.84;;;2.44;92.94
9855;BME280;4966;48.112;9.282;2023-01-24T11:13:19;96020.25;;;2.30;92.18
9855;BME280;4966;48.112;9.282;2023-01-24T11:15:51;96022.69;;;2.59;90.58
9855;BME280;4966;48.112;9.282;2023-01-24T11:18:23;96021.16;;;2.41;91.72
9855;BME280;4966;48.112;9.282;2023-01-24T11:21:04;96020.13;;;2.20;92.94
9855;BME280;4966;48.112;9.282;2023-01-24T11:23:30;96029.63;;;2.06;94.00
9855;BME280;4966;48.112;9.282;2023-01-24T11:25:58;96023.03;;;2.13;94.81
9855;BME280;4966;48.112;9.282;2023-01-24T11:28:28;96027.31;;;2.15;94.10
9855;BME280;4966;48.112;9.282;2023-01-24T11:31:00;96034.31;;;1.72;96.18
9855;BME280;4966;48.112;9.282;2023-01-24T11:36:10;96025.97;;;1.90;95.43
9855;BME280;4966;48.112;9.282;2023-01-24T11:38:44;96013.94;;;2.20;93.56
9855;BME280;4966;48.112;9.282;2023-01-24T11:41:10;96019.34;;;1.98;94.76
9855;BME280;4966;48.112;9.282;2023-01-24T11:49:04;96008.16;;;1.84;94.15
9855;BME280;4966;48.112;9.282;2023-01-24T11:54:43;96013.16;;;1.97;95.37
9855;BME280;4966;48.112;9.282;2023-01-24T12:00:41;96007.72;;;2.41;92.47
9855;BME280;4966;48.112;9.282;2023-01-24T12:13:47;96007.00;;;1.97;94.53
9855;BME280;4966;48.112;9.282;2023-01-24T12:19:15;96000.47;;;2.15;95.61
9855;BME280;4966;48.112;9.282;2023-01-24T12:21:48;95998.94;;;1.75;95.01
9855;BME280;4966;48.112;9.282;2023-01-24T12:24:41;95994.56;;;2.40;93.57
9855;BME280;4966;48.112;9.282;2023-01-24T12:27:14;95994.19;;;2.85;91.00
9855;BME280;4966;48.112;9.282;2023-01-24T12:30:38;95975.38;;;2.58;90.46
9855;BME280;4966;48.112;9.282;2023-01-24T12:32:46;95986.69;;;2.06;94.35
9855;BME280;4966;48.112;9.282;2023-01-24T12:40:38;95983.00;;;2.66;92.06
9855;BME280;4966;48.112;9.282;2023-01-24T12:51:54;95980.31;;;2.39;93.71
9855;BME280;4966;48.112;9.282;2023-01-24T12:54:44;95972.06;;;2.46;93.31
9855;BME280;4966;48.112;9.282;2023-01-24T12:57:47;95968.53;;;2.72;91.87
9855;BME280;4966;48.112;9.282;2023-01-24T13:00:20;95969.47;;;2.02;95.54
9855;BME280;4966;48.112;9.282;2023-01-24T13:05:52;95964.66;;;2.31;93.77
9855;BME280;4966;48.112;9.282;2023-01-24T13:13:40;95969.47;;;2.29;93.69
9855;BME280;4966;48.112;9.282;2023-01-24T13:22:03;95957.38;;;2.26;94.46
9855;BME280;4966;48.112;9.282;2023-01-24T13:30:21;95958.75;;;2.02;94.23
9855;BME280;4966;48.112;9.282;2023-01-24T13:32:48;95968.66;;;1.79;94.73
9855;BME280;4966;48.112;9.282;2023-01-24T13:35:19;95965.22;;;2.33;93.73
9855;BME280;4966;48.112;9.282;2023-01-24T13:38:15;95966.59;;;1.86;94.97
9855;BME280;4966;48.112;9.282;2023-01-24T13:40:59;95969.72;;;2.00;93.35
9855;BME280;4966;48.112;9.282;2023-01-24T13:51:52;95979.59;;;1.95;95.26
9855;BME280;4966;48.112;9.282;2023-01-24T13:54:41;95980.63;;;2.16;94.38
9855;BME280;4966;48.112;9.282;2023-01-24T13:57:26;95980.41;;;2.22;93.36
9855;BME280;4966;48.112;9.282;2023-01-24T14:10:32;95994.75;;;1.84;94.88
9855;BME280;4966;48.112;9.282;2023-01-24T14:12:58;95987.09;;;2.20;94.10
9855;BME280;4966;48.112;9.282;2023-01-24T14:15:38;96001.69;;;2.29;93.55
9855;BME280;4966;48.112;9.282;2023-01-24T14:19:09;96004.84;;;2.48;92.46
9855;BME280;4966;48.112;9.282;2023-01-24T14:21:18;96005.75;;;2.04;93.70
9855;BME280;4966;48.112;9.282;2023-01-24T14:23:47;96004.50;;;1.90;95.57
9855;BME280;4966;48.112;9.282;2023-01-24T14:26:16;96004.47;;;2.12;95.04
9855;BME280;4966;48.112;9.282;2023-01-24T14:28:45;96006.50;;;1.78;95.95
9855;BME280;4966;48.112;9.282;2023-01-24T14:31:31;95999.91;;;2.12;94.04
9855;BME280;4966;48.112;9.282;2023-01-24T14:34:07;95999.81;;;2.29;92.89
9855;BME280;4966;48.112;9.282;2023-01-24T14:36:37;95997.78;;;2.15;93.69
9855;BME280;4966;48.112;9.282;2023-01-24T14:39:23;95997.00;;;1.92;94.53
9855;BME280;4966;48.112;9.282;2023-01-24T14:41:54;96006.69;;;1.71;95.52
9855;BME280;4966;48.112;9.282;2023-01-24T14:44:23;96003.88;;;1.83;96.37
9855;BME280;4966;48.112;9.282;2023-01-24T14:46:54;96006.63;;;1.88;96.03
9855;BME280;4966;48.112;9.282;2023-01-24T14:49:29;96009.81;;;1.85;96.36
9855;BME280;4966;48.112;9.282;2023-01-24T14:51:55;96004.56;;;2.44;92.79
9855;BME280;4966;48.112;9.282;2023-01-24T14:54:23;96014.88;;;2.30;93.09
9855;BME280;4966;48.112;9.282;2023-01-24T14:56:49;96008.84;;;1.96;94.62
9855;BME280;4966;48.112;9.282;2023-01-24T14:59:18;96025.91;;;1.85;95.61
9855;BME280;4966;48.112;9.282;2023-01-24T15:01:45;96021.03;;;2.04;94.94
9855;BME280;4966;48.112;9.282;2023-01-24T15:04:26;96024.66;;;1.92;95.81
9855;BME280;4966;48.112;9.282;2023-01-24T15:07:22;96025.63;;;1.86;95.60
9855;BME280;4966;48.112;9.282;2023-01-24T15:09:47;96034.75;;;1.63;97.20
9855;BME280;4966;48.112;9.282;2023-01-24T15:12:42;96036.81;;;1.78;97.46
9855;BME280;4966;48.112;9.282;2023-01-24T15:15:15;96032.13;;;1.68;98.73
9855;BME280;4966;48.112;9.282;2023-01-24T15:17:45;96040.53;;;1.55;98.31
9855;BME280;4966;48.112;9.282;2023-01-24T15:20:20;96037.09;;;1.60;98.53
9855;BME280;4966;48.112;9.282;2023-01-24T15:22:51;96034.34;;;1.55;98.44
9855;BME280;4966;48.112;9.282;2023-01-24T15:25:20;96041.03;;;1.74;97.65
9855;BME280;4966;48.112;9.282;2023-01-24T15:27:46;96038.00;;;2.09;95.96
9855;BME280;4966;48.112;9.282;2023-01-24T15:43:38;96044.34;;;2.03;94.95
9855;BME280;4966;48.112;9.282;2023-01-24T15:46:26;96050.69;;;2.14;94.46
9855;BME280;4966;48.112;9.282;2023-01-24T15:54:34;96055.41;;;1.85;96.13
9855;BME280;4966;48.112;9.282;2023-01-24T15:59:44;96053.41;;;1.75;97.10
9855;BME280;4966;48.112;9.282;2023-01-24T16:02:14;96055.72;;;1.88;96.16
9855;BME280;4966;48.112;9.282;2023-01-24T16:04:40;96056.16;;;1.80;97.26
9855;BME280;4966;48.112;9.282;2023-01-24T16:07:06;96057.72;;;1.76;97.23